Flight Number: AVA2014 Duration: 1:00
Departure: Toronto Pearson Int`L. (CYYZ) at 13:45 Distance: 274.172 Nm
Arrival: Montreal Intl Airport (CYUL) at 14:45 Equipment: CRJ700

Weather Information
Toronto Pearson Int'L. Ont., Canada (CYYZ) 43-40N 079-38W 173M Aug 14, 2020 - 06:00 PM EDT / 2020.08.14 2200 UTC
Wind: from the ESE (110 degrees) at 10 MPH (9 KT) gusting to 17 MPH (15 KT):0
Visibility: 15 mile(s):0
Sky conditions: mostly clear Temperature: 80 F (27 C) Dew Point: 55 F (13 C) Relative Humidity: 41% Pressure (altimeter): 30.05 in. Hg (1017 hPa)
ob: CYYZ 142200Z 11009G15KT 15SM FEW055 FEW260 27/13 A3005 RMK CU1CI1 CU TR CI TR SLP175 DENSITY ALT 2000FT cycle: 22
Sunrise: 10:26 Sunset: 00:19 (UTC)

Montreal / Pierre Elliot Trudeau International Airport, Que, Canada (CYUL) 45-28N 073-45W 36M Aug 14, 2020 - 06:00 PM EDT / 2020.08.14 2200 UTC
Wind: from the NE (050 degrees) at 16 MPH (14 KT):0
Visibility: 30 mile(s):0
Sky conditions: mostly clear Temperature: 78 F (26 C) Dew Point: 53 F (12 C) Relative Humidity: 41% Pressure (altimeter): 30.1 in. Hg (1019 hPa)
ob: CYUL 142200Z 05014KT 30SM FEW065 FEW240 26/12 A3010 RMK CF1CI1 CF TR CI TR SLP193 DENSITY ALT 1300FT cycle: 22
Sunrise: 09:59 Sunset: 23:59 (UTC)

TAF:2020/08/14 21:48 TAF CYUL 142044Z 1421/1518 03012KT P6SM FEW060 BECMG 1500/1502 04008KT FM151500 08010KT P6SM FEW060 RMK NXT FCST BY 150000Z

Previous Pireps for this route
Date Aircraft Flight time Fuel used Landing rate On time
2016-04-10CRJ7001.0220630Yes
(pireps marked green are flown by you)

Route map